Time,TemperatureF,DewpointF,PressureIn,WindDirection,WindDirectionDegrees,WindSpeedMPH,WindSpeedGustMPH,Humidity,HourlyPrecipIn,Conditions,Clouds,dailyrainin,SoftwareType,DateUTC
2013-04-24 00:01:00,34.9,32.2,30.20,West,279,1.0,4.0,90,0.02,,,0.03,meteohub,2013-04-24 05:01:00,
2013-04-24 00:06:00,35.1,32.4,30.19,West,281,0.0,4.0,90,0.02,,,0.03,meteohub,2013-04-24 05:06:00,
2013-04-24 00:11:00,35.1,32.4,30.19,West,268,0.0,4.0,90,0.02,,,0.03,meteohub,2013-04-24 05:11:00,
2013-04-24 00:16:00,35.2,32.5,30.20,West,273,2.0,4.0,90,0.01,,,0.03,meteohub,2013-04-24 05:16:00,
2013-04-24 00:21:00,35.2,32.5,30.20,WNW,286,2.0,5.0,90,0.01,,,0.03,meteohub,2013-04-24 05:21:00,
2013-04-24 00:26:00,35.4,32.5,30.20,WNW,293,2.0,5.0,89,0.01,,,0.03,meteohub,2013-04-24 05:26:00,
2013-04-24 00:31:00,35.6,32.4,30.21,WNW,286,2.0,5.0,88,0.01,,,0.03,meteohub,2013-04-24 05:31:00,
2013-04-24 00:36:00,35.8,32.4,30.20,WNW,303,4.0,5.0,87,0.01,,,0.03,meteohub,2013-04-24 05:36:00,
2013-04-24 00:41:00,36.0,32.2,30.20,NW,326,3.0,5.0,86,0.01,,,0.03,meteohub,2013-04-24 05:41:00,
2013-04-24 00:46:00,36.1,31.8,30.21,NW,313,2.0,5.0,84,0.00,,,0.03,meteohub,2013-04-24 05:46:00,
2013-04-24 00:51:00,36.3,31.6,30.20,NW,306,3.0,7.0,83,0.00,,,0.03,meteohub,2013-04-24 05:51:00,
2013-04-24 00:56:00,36.3,31.3,30.20,NW,317,4.0,7.0,82,0.00,,,0.03,meteohub,2013-04-24 05:56:00,
2013-04-24 01:01:00,36.3,31.1,30.20,WNW,293,3.0,7.0,81,0.00,,,0.03,meteohub,2013-04-24 06:01:00,
2013-04-24 01:06:00,36.3,31.1,30.20,NW,304,6.0,7.0,81,0.00,,,0.03,meteohub,2013-04-24 06:06:00,
2013-04-24 01:11:00,36.3,30.7,30.19,NNW,338,4.0,7.0,80,0.00,,,0.03,meteohub,2013-04-24 06:11:00,
2013-04-24 01:16:00,36.3,30.7,30.19,NNW,329,4.0,7.0,80,0.00,,,0.03,meteohub,2013-04-24 06:16:00,
2013-04-24 01:21:00,36.3,30.7,30.20,NW,321,6.0,7.0,80,0.00,,,0.03,meteohub,2013-04-24 06:21:00,
2013-04-24 01:26:00,36.3,30.4,30.20,NNW,337,3.0,7.0,79,0.00,,,0.03,meteohub,2013-04-24 06:26:00,
2013-04-24 01:31:00,36.1,30.2,30.20,NW,309,4.0,7.0,79,0.00,,,0.03,meteohub,2013-04-24 06:31:00,
2013-04-24 01:36:00,36.1,30.0,30.20,WNW,301,6.0,7.0,78,0.00,,,0.03,meteohub,2013-04-24 06:36:00,
2013-04-24 01:41:00,36.0,29.8,30.19,NW,317,3.0,9.0,78,0.00,,,0.03,meteohub,2013-04-24 06:41:00,
2013-04-24 01:46:00,36.0,29.5,30.19,NW,308,4.0,9.0,77,0.00,,,0.03,meteohub,2013-04-24 06:46:00,
2013-04-24 01:51:00,35.8,29.3,30.20,WNW,292,5.0,9.0,77,0.00,,,0.03,meteohub,2013-04-24 06:51:00,
2013-04-24 01:56:00,35.8,29.7,30.20,NW,308,6.0,12.0,78,0.00,,,0.03,meteohub,2013-04-24 06:56:00,
2013-04-24 02:01:00,35.8,29.3,30.19,WNW,287,7.0,12.0,77,0.00,,,0.03,meteohub,2013-04-24 07:01:00,
2013-04-24 02:06:00,35.6,28.8,30.20,WNW,302,3.0,12.0,76,0.00,,,0.03,meteohub,2013-04-24 07:06:00,
2013-04-24 02:11:00,35.4,28.9,30.19,WNW,298,7.0,12.0,77,0.00,,,0.03,meteohub,2013-04-24 07:11:00,
2013-04-24 02:16:00,35.4,28.9,30.19,NNW,332,3.0,12.0,77,0.00,,,0.03,meteohub,2013-04-24 07:16:00,
2013-04-24 02:21:00,35.4,28.9,30.19,NW,317,4.0,13.0,77,0.00,,,0.03,meteohub,2013-04-24 07:21:00,
2013-04-24 02:26:00,35.4,28.6,30.19,WNW,283,4.0,13.0,76,0.00,,,0.03,meteohub,2013-04-24 07:26:00,
2013-04-24 02:31:00,35.4,28.6,30.19,NW,326,4.0,13.0,76,0.00,,,0.03,meteohub,2013-04-24 07:31:00,
2013-04-24 02:36:00,35.2,28.4,30.19,NW,304,9.0,12.0,76,0.00,,,0.03,meteohub,2013-04-24 07:36:00,
2013-04-24 02:41:00,35.2,28.4,30.19,WNW,296,5.0,12.0,76,0.00,,,0.03,meteohub,2013-04-24 07:41:00,
2013-04-24 02:46:00,35.2,28.4,30.19,NW,313,4.0,12.0,76,0.00,,,0.03,meteohub,2013-04-24 07:46:00,
2013-04-24 02:51:00,35.1,27.9,30.19,WNW,296,7.0,12.0,75,0.00,,,0.03,meteohub,2013-04-24 07:51:00,
2013-04-24 02:56:00,35.1,27.9,30.19,West,273,6.0,14.0,75,0.00,,,0.03,meteohub,2013-04-24 07:56:00,
2013-04-24 03:01:00,35.1,27.9,30.19,WNW,298,6.0,14.0,75,0.00,,,0.03,meteohub,2013-04-24 08:01:00,
2013-04-24 03:06:00,35.1,27.9,30.19,WNW,292,7.0,14.0,75,0.00,,,0.03,meteohub,2013-04-24 08:06:00,
2013-04-24 03:11:00,34.9,27.7,30.19,NNW,331,5.0,14.0,75,0.00,,,0.03,meteohub,2013-04-24 08:11:00,
2013-04-24 03:16:00,34.9,27.7,30.19,NNW,330,5.0,15.0,75,0.00,,,0.03,meteohub,2013-04-24 08:16:00,
2013-04-24 03:21:00,34.5,27.5,30.19,NW,304,2.0,15.0,75,0.00,,,0.03,meteohub,2013-04-24 08:21:00,
2013-04-24 03:26:00,34.3,27.3,30.19,WNW,303,6.0,15.0,75,0.00,,,0.03,meteohub,2013-04-24 08:26:00,
2013-04-24 03:31:00,34.3,27.3,30.19,NW,307,6.0,15.0,75,0.00,,,0.03,meteohub,2013-04-24 08:31:00,
2013-04-24 03:36:00,34.3,27.3,30.19,West,270,7.0,13.0,75,0.00,,,0.03,meteohub,2013-04-24 08:36:00,
2013-04-24 03:41:00,34.2,27.1,30.19,NNW,328,7.0,13.0,75,0.00,,,0.03,meteohub,2013-04-24 08:41:00,
2013-04-24 03:46:00,34.0,27.0,30.19,NW,306,4.0,13.0,75,0.00,,,0.03,meteohub,2013-04-24 08:46:00,
2013-04-24 03:51:00,34.0,27.1,30.19,NW,318,5.0,13.0,76,0.00,,,0.03,meteohub,2013-04-24 08:51:00,
2013-04-24 03:56:00,33.8,28.2,30.19,NW,304,3.0,9.0,80,0.00,,,0.03,meteohub,2013-04-24 08:56:00,
2013-04-24 04:01:00,33.6,26.6,30.19,NW,312,5.0,9.0,75,0.00,,,0.03,meteohub,2013-04-24 09:01:00,
2013-04-24 04:06:00,33.4,26.4,30.19,NW,309,4.0,9.0,75,0.00,,,0.03,meteohub,2013-04-24 09:06:00,
2013-04-24 04:11:00,33.4,26.4,30.20,NW,325,5.0,9.0,75,0.00,,,0.03,meteohub,2013-04-24 09:11:00,
2013-04-24 04:16:00,33.3,26.6,30.20,WNW,302,6.0,7.0,76,0.00,,,0.03,meteohub,2013-04-24 09:16:00,
2013-04-24 04:21:00,33.1,26.4,30.20,WNW,302,2.0,7.0,76,0.00,,,0.03,meteohub,2013-04-24 09:21:00,
2013-04-24 04:26:00,33.1,26.4,30.21,NW,310,6.0,7.0,76,0.00,,,0.03,meteohub,2013-04-24 09:26:00,
2013-04-24 04:31:00,33.1,26.1,30.21,NW,313,5.0,7.0,75,0.00,,,0.03,meteohub,2013-04-24 09:31:00,
2013-04-24 04:36:00,33.1,26.1,30.21,NW,317,5.0,11.0,75,0.00,,,0.03,meteohub,2013-04-24 09:36:00,
2013-04-24 04:41:00,32.9,25.9,30.22,NNW,347,3.0,11.0,75,0.00,,,0.03,meteohub,2013-04-24 09:41:00,
2013-04-24 04:46:00,32.9,25.5,30.22,NW,309,3.0,11.0,74,0.00,,,0.03,meteohub,2013-04-24 09:46:00,
2013-04-24 04:51:00,32.7,25.7,30.22,WNW,290,3.0,11.0,75,0.00,,,0.03,meteohub,2013-04-24 09:51:00,
2013-04-24 04:56:00,32.7,25.7,30.22,WNW,296,1.0,11.0,75,0.00,,,0.03,meteohub,2013-04-24 09:56:00,
2013-04-24 05:01:00,32.5,25.5,30.22,NW,319,5.0,10.0,75,0.00,,,0.03,meteohub,2013-04-24 10:01:00,
2013-04-24 05:06:00,32.4,25.3,30.22,WNW,292,2.0,10.0,75,0.00,,,0.03,meteohub,2013-04-24 10:06:00,
2013-04-24 05:11:00,32.4,25.7,30.22,NW,315,3.0,10.0,76,0.00,,,0.03,meteohub,2013-04-24 10:11:00,
2013-04-24 05:16:00,32.2,25.5,30.22,West,277,2.0,10.0,76,0.00,,,0.03,meteohub,2013-04-24 10:16:00,
2013-04-24 05:21:00,31.8,25.2,30.22,WNW,282,5.0,10.0,76,0.00,,,0.03,meteohub,2013-04-24 10:21:00,
2013-04-24 05:26:00,31.6,25.3,30.23,West,281,3.0,10.0,77,0.00,,,0.03,meteohub,2013-04-24 10:26:00,
2013-04-24 05:31:00,31.5,25.3,30.23,WNW,296,3.0,10.0,78,0.00,,,0.03,meteohub,2013-04-24 10:31:00,
2013-04-24 05:36:00,31.3,25.2,30.23,West,280,4.0,8.0,78,0.00,,,0.03,meteohub,2013-04-24 10:36:00,
2013-04-24 05:41:00,31.1,25.0,30.23,NW,304,2.0,8.0,78,0.00,,,0.03,meteohub,2013-04-24 10:41:00,
2013-04-24 05:46:00,30.9,24.8,30.23,WNW,294,1.0,8.0,78,0.00,,,0.03,meteohub,2013-04-24 10:46:00,
2013-04-24 05:51:00,30.9,24.8,30.23,NW,304,1.0,8.0,78,0.00,,,0.03,meteohub,2013-04-24 10:51:00,
2013-04-24 05:56:00,30.9,25.2,30.23,NW,324,2.0,8.0,79,0.00,,,0.03,meteohub,2013-04-24 10:56:00,
2013-04-24 06:01:00,30.9,24.8,30.23,NW,325,2.0,8.0,78,0.00,,,0.03,meteohub,2013-04-24 11:01:00,
2013-04-24 06:06:00,30.9,24.8,30.23,NNW,330,1.0,8.0,78,0.00,,,0.03,meteohub,2013-04-24 11:06:00,
2013-04-24 06:11:00,30.9,24.8,30.23,NW,313,7.0,8.0,78,0.00,,,0.03,meteohub,2013-04-24 11:11:00,
2013-04-24 06:16:00,30.9,24.6,30.24,NW,318,2.0,4.0,77,0.00,,,0.03,meteohub,2013-04-24 11:16:00,
2013-04-24 06:21:00,30.9,24.6,30.24,NW,313,1.0,4.0,77,0.00,,,0.03,meteohub,2013-04-24 11:21:00,
2013-04-24 06:26:00,30.9,26.4,30.24,WNW,288,2.0,4.0,83,0.00,,,0.03,meteohub,2013-04-24 11:26:00,
2013-04-24 06:31:00,30.7,24.4,30.24,WNW,289,1.0,4.0,77,0.00,,,0.03,meteohub,2013-04-24 11:31:00,
2013-04-24 06:36:00,30.6,24.4,30.24,West,271,3.0,4.0,78,0.00,,,0.03,meteohub,2013-04-24 11:36:00,
2013-04-24 06:41:00,30.6,24.4,30.25,WNW,283,2.0,4.0,78,0.00,,,0.03,meteohub,2013-04-24 11:41:00,
2013-04-24 06:46:00,30.4,24.3,30.25,WSW,248,3.0,4.0,78,0.00,,,0.03,meteohub,2013-04-24 11:46:00,
2013-04-24 06:51:00,30.4,24.3,30.25,WNW,284,3.0,4.0,78,0.00,,,0.03,meteohub,2013-04-24 11:51:00,
2013-04-24 06:56:00,30.2,24.3,30.25,WNW,286,4.0,5.0,78,0.00,,,0.03,meteohub,2013-04-24 11:56:00,
2013-04-24 07:01:00,30.2,24.3,30.25,WNW,289,3.0,5.0,78,0.00,,,0.03,meteohub,2013-04-24 12:01:00,
2013-04-24 07:06:00,30.4,24.3,30.25,WNW,295,0.0,5.0,78,0.00,,,0.03,meteohub,2013-04-24 12:06:00,
2013-04-24 07:11:00,30.4,24.6,30.26,NW,315,4.0,5.0,79,0.00,,,0.03,meteohub,2013-04-24 12:11:00,
2013-04-24 07:16:00,30.6,24.8,30.26,WNW,286,4.0,5.0,79,0.00,,,0.03,meteohub,2013-04-24 12:16:00,
2013-04-24 07:21:00,30.7,24.6,30.27,WSW,258,5.0,5.0,78,0.00,,,0.03,meteohub,2013-04-24 12:21:00,
2013-04-24 07:26:00,30.7,24.6,30.27,WNW,289,3.0,5.0,78,0.00,,,0.03,meteohub,2013-04-24 12:26:00,
2013-04-24 07:31:00,31.1,25.0,30.27,West,273,3.0,5.0,78,0.00,,,0.03,meteohub,2013-04-24 12:31:00,
2013-04-24 07:36:00,31.3,25.0,30.27,WNW,290,3.0,5.0,77,-99.99,,,0.03,meteohub,2013-04-24 12:36:00,
2013-04-24 07:41:00,31.5,25.2,30.28,WNW,292,3.0,9.0,77,0.00,,,0.03,meteohub,2013-04-24 12:41:00,
2013-04-24 07:46:00,31.6,25.0,30.28,West,279,6.0,9.0,76,0.00,,,0.03,meteohub,2013-04-24 12:46:00,
2013-04-24 07:51:00,31.8,25.2,30.28,West,275,3.0,9.0,76,0.00,,,0.03,meteohub,2013-04-24 12:51:00,
2013-04-24 07:56:00,31.8,24.8,30.27,West,278,2.0,9.0,75,0.00,,,0.03,meteohub,2013-04-24 12:56:00,
2013-04-24 08:01:00,32.2,25.2,30.28,WNW,292,5.0,9.0,75,0.00,,,0.03,meteohub,2013-04-24 13:01:00,
2013-04-24 08:06:00,32.4,25.3,30.28,WNW,284,5.0,9.0,75,0.00,,,0.03,meteohub,2013-04-24 13:06:00,
2013-04-24 08:11:00,32.4,25.0,30.28,NW,326,4.0,9.0,74,0.00,,,0.03,meteohub,2013-04-24 13:11:00,
2013-04-24 08:16:00,32.5,25.2,30.28,NW,321,2.0,9.0,74,0.00,,,0.03,meteohub,2013-04-24 13:16:00,
2013-04-24 08:21:00,32.9,25.5,30.28,NW,319,2.0,-999.0,74,0.00,,,0.03,meteohub,2013-04-24 13:21:00,
2013-04-24 08:26:00,33.3,25.9,30.28,NW,325,5.0,10.0,74,0.00,,,0.03,meteohub,2013-04-24 13:26:00,
2013-04-24 08:31:00,33.4,25.3,30.27,NNW,329,4.0,10.0,72,0.00,,,0.03,meteohub,2013-04-24 13:31:00,
2013-04-24 08:36:00,33.6,25.5,30.28,WNW,300,3.0,10.0,72,0.00,,,0.03,meteohub,2013-04-24 13:36:00,
2013-04-24 08:41:00,33.8,25.7,30.28,WNW,296,5.0,10.0,72,0.00,,,0.03,meteohub,2013-04-24 13:41:00,
2013-04-24 08:46:00,34.0,25.9,30.28,WNW,296,3.0,10.0,72,0.00,,,0.03,meteohub,2013-04-24 13:46:00,
2013-04-24 08:51:00,34.3,25.9,30.28,WNW,286,2.0,10.0,71,0.00,,,0.03,meteohub,2013-04-24 13:51:00,
2013-04-24 08:56:00,34.7,26.2,30.28,NW,318,5.0,9.0,71,0.00,,,0.03,meteohub,2013-04-24 13:56:00,
2013-04-24 09:01:00,35.1,26.2,30.27,NW,319,2.0,9.0,70,0.00,,,0.03,meteohub,2013-04-24 14:01:00,
2013-04-24 09:06:00,35.8,26.6,30.27,NW,305,3.0,9.0,69,0.00,,,0.03,meteohub,2013-04-24 14:06:00,
2013-04-24 09:11:00,35.8,26.6,30.27,WNW,289,4.0,9.0,69,0.00,,,0.03,meteohub,2013-04-24 14:11:00,
2013-04-24 09:17:00,36.1,27.3,30.27,WNW,302,5.0,9.0,70,0.00,,,0.03,meteohub,2013-04-24 14:17:00,
2013-04-24 09:22:00,36.3,27.1,30.26,NW,311,3.0,9.0,69,0.00,,,0.03,meteohub,2013-04-24 14:22:00,
2013-04-24 09:27:00,36.9,27.7,30.26,NNW,327,4.0,10.0,69,0.00,,,0.03,meteohub,2013-04-24 14:27:00,
2013-04-24 09:32:00,36.9,27.0,30.26,North,355,3.0,10.0,67,0.00,,,0.03,meteohub,2013-04-24 14:32:00,
2013-04-24 09:37:00,37.0,27.1,30.27,NW,320,2.0,10.0,67,0.00,,,0.03,meteohub,2013-04-24 14:37:00,
2013-04-24 09:42:00,37.0,27.1,30.26,NW,304,4.0,10.0,67,0.00,,,0.03,meteohub,2013-04-24 14:42:00,
2013-04-24 09:47:00,37.0,27.1,30.27,WSW,247,3.0,10.0,67,0.00,,,0.03,meteohub,2013-04-24 14:47:00,
2013-04-24 09:52:00,37.0,26.4,30.27,West,274,5.0,10.0,65,0.00,,,0.03,meteohub,2013-04-24 14:52:00,
2013-04-24 09:57:00,37.0,26.1,30.27,West,276,6.0,10.0,64,0.00,,,0.03,meteohub,2013-04-24 14:57:00,
2013-04-24 10:02:00,37.4,26.8,30.27,NW,320,5.0,10.0,65,0.00,,,0.03,meteohub,2013-04-24 15:02:00,
2013-04-24 10:09:00,37.6,26.1,30.27,West,275,3.0,10.0,63,0.00,,,0.03,meteohub,2013-04-24 15:09:00,
2013-04-24 10:14:00,37.9,26.4,30.27,NW,304,4.0,10.0,63,0.00,,,0.03,meteohub,2013-04-24 15:14:00,
2013-04-24 10:19:00,37.9,27.1,30.27,NW,319,1.0,10.0,65,0.00,,,0.03,meteohub,2013-04-24 15:19:00,
2013-04-24 10:24:00,38.1,27.0,30.26,WNW,282,6.0,10.0,64,0.00,,,0.03,meteohub,2013-04-24 15:24:00,
2013-04-24 10:29:00,38.1,27.0,30.27,NNW,342,1.0,10.0,64,0.00,,,0.03,meteohub,2013-04-24 15:29:00,
2013-04-24 10:35:00,38.3,26.8,30.26,WNW,300,2.0,7.0,63,0.00,,,0.03,meteohub,2013-04-24 15:35:00,
2013-04-24 10:40:00,38.8,27.7,30.26,NW,306,3.0,7.0,64,0.00,,,0.03,meteohub,2013-04-24 15:40:00,
2013-04-24 10:45:00,39.6,28.4,30.25,NW,306,5.0,7.0,64,0.00,,,0.03,meteohub,2013-04-24 15:45:00,
2013-04-24 10:50:00,39.7,28.2,30.25,NNW,332,4.0,7.0,63,0.00,,,0.03,meteohub,2013-04-24 15:50:00,
2013-04-24 10:55:00,39.9,28.4,30.25,NW,323,3.0,7.0,63,0.00,,,0.03,meteohub,2013-04-24 15:55:00,
2013-04-24 11:00:00,40.5,28.4,30.26,NW,310,1.0,7.0,62,0.00,,,0.03,meteohub,2013-04-24 16:00:00,
2013-04-24 11:05:00,40.8,28.8,30.27,SSE,150,3.0,7.0,62,0.00,,,0.03,meteohub,2013-04-24 16:05:00,
2013-04-24 11:10:00,41.2,27.9,30.27,NNE,19,6.0,7.0,59,0.00,,,0.03,meteohub,2013-04-24 16:10:00,
2013-04-24 11:15:00,41.2,27.5,30.27,WNW,284,5.0,11.0,58,0.00,,,0.03,meteohub,2013-04-24 16:15:00,
2013-04-24 11:20:00,40.6,27.5,30.27,WNW,297,4.0,11.0,59,0.00,,,0.03,meteohub,2013-04-24 16:20:00,
2013-04-24 11:25:00,40.8,27.7,30.28,NW,310,2.0,11.0,59,0.00,,,0.03,meteohub,2013-04-24 16:25:00,
2013-04-24 11:30:00,41.2,27.9,30.28,NW,315,6.0,11.0,59,0.00,,,0.03,meteohub,2013-04-24 16:30:00,
2013-04-24 11:35:00,41.2,26.6,30.28,WNW,286,5.0,11.0,56,0.00,,,0.03,meteohub,2013-04-24 16:35:00,
2013-04-24 11:40:00,41.4,25.5,30.28,WNW,283,2.0,11.0,53,0.00,,,0.03,meteohub,2013-04-24 16:40:00,
2013-04-24 11:45:00,41.9,26.1,30.27,WSW,252,2.0,11.0,53,0.00,,,0.03,meteohub,2013-04-24 16:45:00,
2013-04-24 11:50:00,42.3,25.9,30.27,SE,140,1.0,11.0,52,0.00,,,0.03,meteohub,2013-04-24 16:50:00,
2013-04-24 11:55:00,43.0,27.0,30.27,SSW,207,5.0,11.0,53,0.00,,,0.03,meteohub,2013-04-24 16:55:00,
2013-04-24 12:00:00,43.2,26.8,30.27,WSW,241,3.0,11.0,52,0.00,,,0.03,meteohub,2013-04-24 17:00:00,
2013-04-24 12:05:00,43.2,26.8,30.27,West,272,2.0,11.0,52,0.00,,,0.03,meteohub,2013-04-24 17:05:00,
2013-04-24 12:10:00,43.3,26.4,30.27,WSW,244,3.0,11.0,51,0.00,,,0.03,meteohub,2013-04-24 17:10:00,
2013-04-24 12:15:00,43.9,27.3,30.27,West,278,6.0,11.0,52,0.00,,,0.03,meteohub,2013-04-24 17:15:00,
2013-04-24 12:20:00,43.9,27.9,30.27,NW,324,2.0,10.0,53,0.00,,,0.03,meteohub,2013-04-24 17:20:00,
2013-04-24 12:25:00,44.2,28.2,30.27,WNW,297,4.0,10.0,53,0.00,,,0.03,meteohub,2013-04-24 17:25:00,
2013-04-24 12:30:00,44.2,27.7,30.26,WNW,292,3.0,10.0,52,0.00,,,0.03,meteohub,2013-04-24 17:30:00,
2013-04-24 12:35:00,44.8,28.2,30.26,SSE,163,5.0,10.0,52,0.00,,,0.03,meteohub,2013-04-24 17:35:00,
2013-04-24 12:40:00,45.0,27.9,30.26,WSW,254,3.0,10.0,51,0.00,,,0.03,meteohub,2013-04-24 17:40:00,
2013-04-24 12:45:00,45.0,27.5,30.26,WSW,240,2.0,10.0,50,0.00,,,0.03,meteohub,2013-04-24 17:45:00,
2013-04-24 12:50:00,45.3,27.9,30.25,WSW,238,5.0,10.0,50,0.00,,,0.03,meteohub,2013-04-24 17:50:00,
2013-04-24 12:55:00,45.7,27.1,30.25,WNW,299,4.0,10.0,48,0.00,,,0.03,meteohub,2013-04-24 17:55:00,
2013-04-24 13:00:00,45.3,26.8,30.25,West,280,2.0,10.0,48,0.00,,,0.03,meteohub,2013-04-24 18:00:00,
2013-04-24 13:05:00,45.9,27.3,30.25,WNW,293,1.0,10.0,48,0.00,,,0.03,meteohub,2013-04-24 18:05:00,
2013-04-24 13:10:00,46.2,28.6,30.25,WSW,243,6.0,10.0,50,0.00,,,0.03,meteohub,2013-04-24 18:10:00,
2013-04-24 13:15:00,46.6,27.5,30.24,WNW,294,5.0,10.0,47,0.00,,,0.03,meteohub,2013-04-24 18:15:00,
2013-04-24 13:20:00,46.9,28.2,30.24,NNW,327,4.0,10.0,48,0.00,,,0.03,meteohub,2013-04-24 18:20:00,
2013-04-24 13:25:00,46.9,26.2,30.24,WNW,294,2.0,10.0,44,0.00,,,0.03,meteohub,2013-04-24 18:25:00,
2013-04-24 13:30:00,46.9,27.3,30.24,WNW,294,6.0,10.0,46,0.00,,,0.03,meteohub,2013-04-24 18:30:00,
2013-04-24 13:35:00,47.1,26.8,30.24,NNW,329,3.0,11.0,45,0.00,,,0.03,meteohub,2013-04-24 18:35:00,
2013-04-24 13:40:00,47.5,26.6,30.25,NW,313,6.0,11.0,44,0.00,,,0.03,meteohub,2013-04-24 18:40:00,
2013-04-24 13:45:00,47.7,25.7,30.25,WNW,300,6.0,11.0,42,0.00,,,0.03,meteohub,2013-04-24 18:45:00,
2013-04-24 13:50:00,47.8,26.4,30.25,West,273,5.0,13.0,43,0.00,,,0.03,meteohub,2013-04-24 18:50:00,
2013-04-24 13:55:00,48.4,26.4,30.25,WNW,293,7.0,13.0,42,0.00,,,0.03,meteohub,2013-04-24 18:55:00,
2013-04-24 14:00:00,48.9,27.3,30.25,WSW,249,6.0,13.0,43,0.00,,,0.03,meteohub,2013-04-24 19:00:00,
2013-04-24 14:05:00,49.8,26.4,30.25,WNW,287,5.0,13.0,40,0.00,,,0.03,meteohub,2013-04-24 19:05:00,
2013-04-24 14:10:00,49.5,25.5,30.25,WSW,258,9.0,13.0,39,0.00,,,0.03,meteohub,2013-04-24 19:10:00,
2013-04-24 14:15:00,49.6,26.2,30.25,SE,142,7.0,13.0,40,0.00,,,0.03,meteohub,2013-04-24 19:15:00,
2013-04-24 14:20:00,49.8,26.4,30.25,South,179,7.0,13.0,40,0.00,,,0.03,meteohub,2013-04-24 19:20:00,
2013-04-24 14:25:00,50.2,26.8,30.25,SW,231,7.0,13.0,40,0.00,,,0.03,meteohub,2013-04-24 19:25:00,
2013-04-24 14:30:00,50.4,27.5,30.25,SSW,205,4.0,13.0,41,0.00,,,0.03,meteohub,2013-04-24 19:30:00,
2013-04-24 14:35:00,50.5,27.7,30.25,SSW,202,4.0,13.0,41,0.00,,,0.03,meteohub,2013-04-24 19:35:00,
2013-04-24 14:40:00,51.1,27.0,30.24,South,188,9.0,18.0,39,0.00,,,0.03,meteohub,2013-04-24 19:40:00,
2013-04-24 14:45:00,50.7,27.3,30.24,SSW,199,5.0,18.0,40,0.00,,,0.03,meteohub,2013-04-24 19:45:00,
2013-04-24 14:50:00,51.1,28.2,30.24,SW,234,4.0,18.0,41,0.00,,,0.03,meteohub,2013-04-24 19:50:00,
2013-04-24 14:55:00,51.3,27.7,30.24,West,276,9.0,17.0,40,0.00,,,0.03,meteohub,2013-04-24 19:55:00,
2013-04-24 15:00:00,51.3,28.4,30.24,SW,232,9.0,17.0,41,0.00,,,0.03,meteohub,2013-04-24 20:00:00,
2013-04-24 15:05:00,51.4,28.6,30.24,SSW,208,7.0,17.0,41,0.00,,,0.03,meteohub,2013-04-24 20:05:00,
2013-04-24 15:10:00,51.4,28.6,30.23,SSW,192,7.0,17.0,41,0.00,,,0.03,meteohub,2013-04-24 20:10:00,
2013-04-24 15:15:00,51.6,29.3,30.22,SW,223,7.0,17.0,42,0.00,,,0.03,meteohub,2013-04-24 20:15:00,
2013-04-24 15:20:00,51.6,29.3,30.22,South,178,5.0,16.0,42,0.00,,,0.03,meteohub,2013-04-24 20:20:00,
2013-04-24 15:25:00,52.2,29.1,30.22,SSW,209,8.0,16.0,41,0.00,,,0.03,meteohub,2013-04-24 20:25:00,
2013-04-24 15:30:00,52.3,29.3,30.21,SW,223,4.0,16.0,41,0.00,,,0.03,meteohub,2013-04-24 20:30:00,
2013-04-24 15:35:00,52.9,29.3,30.21,WSW,252,5.0,16.0,40,0.00,,,0.03,meteohub,2013-04-24 20:35:00,
2013-04-24 15:40:00,52.7,29.1,30.21,WSW,255,12.0,17.0,40,0.00,,,0.03,meteohub,2013-04-24 20:40:00,
2013-04-24 15:45:00,52.9,28.0,30.21,SSW,206,3.0,17.0,38,0.00,,,0.03,meteohub,2013-04-24 20:45:00,
2013-04-24 15:50:00,53.2,28.9,30.21,SSW,206,9.0,17.0,39,0.00,,,0.03,meteohub,2013-04-24 20:50:00,
2013-04-24 15:55:00,53.8,28.8,30.20,WSW,258,4.0,16.0,38,0.00,,,0.03,meteohub,2013-04-24 20:55:00,
2013-04-24 16:00:00,54.1,29.1,30.20,SW,215,11.0,16.0,38,0.00,,,0.03,meteohub,2013-04-24 21:00:00,
2013-04-24 16:05:00,54.1,29.1,30.20,SW,227,2.0,16.0,38,0.00,,,0.03,meteohub,2013-04-24 21:05:00,
2013-04-24 16:10:00,54.3,28.6,30.19,SSW,196,13.0,16.0,37,0.00,,,0.03,meteohub,2013-04-24 21:10:00,
2013-04-24 16:15:00,54.9,29.7,30.19,WSW,251,7.0,16.0,38,0.00,,,0.03,meteohub,2013-04-24 21:15:00,
2013-04-24 16:20:00,54.9,29.1,30.19,WSW,239,6.0,14.0,37,0.00,,,0.03,meteohub,2013-04-24 21:20:00,
2013-04-24 16:25:00,54.9,29.1,30.19,SSW,212,14.0,14.0,37,0.00,,,0.03,meteohub,2013-04-24 21:25:00,
2013-04-24 16:30:00,54.9,27.7,30.19,WSW,243,14.0,14.0,35,0.00,,,0.03,meteohub,2013-04-24 21:30:00,
2013-04-24 16:35:00,54.7,27.5,30.19,WSW,243,6.0,14.0,35,0.00,,,0.03,meteohub,2013-04-24 21:35:00,
2013-04-24 16:40:00,54.7,28.2,30.19,WSW,258,4.0,15.0,36,0.00,,,0.03,meteohub,2013-04-24 21:40:00,
2013-04-24 16:45:00,54.9,28.4,30.18,SSW,207,4.0,15.0,36,0.00,,,0.03,meteohub,2013-04-24 21:45:00,
2013-04-24 16:50:00,55.2,28.8,30.18,WSW,252,7.0,15.0,36,0.00,,,0.03,meteohub,2013-04-24 21:50:00,
2013-04-24 16:55:00,55.2,28.0,30.18,SSW,211,11.0,15.0,35,0.00,,,0.03,meteohub,2013-04-24 21:55:00,
2013-04-24 17:00:00,55.8,28.6,30.18,SSW,195,14.0,14.0,35,0.00,,,0.03,meteohub,2013-04-24 22:00:00,
2013-04-24 17:05:00,55.4,28.2,30.18,SSW,213,7.0,14.0,35,0.00,,,0.03,meteohub,2013-04-24 22:05:00,
2013-04-24 17:10:00,55.6,28.4,30.18,SSW,205,12.0,14.0,35,0.00,,,0.03,meteohub,2013-04-24 22:10:00,
2013-04-24 17:15:00,55.2,28.8,30.18,SSW,211,2.0,14.0,36,0.00,,,0.03,meteohub,2013-04-24 22:15:00,
2013-04-24 17:20:00,55.6,28.4,30.17,WNW,284,3.0,19.0,35,0.00,,,0.03,meteohub,2013-04-24 22:20:00,
2013-04-24 17:25:00,55.8,28.6,30.17,SSW,200,11.0,19.0,35,0.00,,,0.03,meteohub,2013-04-24 22:25:00,
2013-04-24 17:30:00,55.9,28.8,30.17,SW,219,3.0,19.0,35,0.00,,,0.03,meteohub,2013-04-24 22:30:00,
2013-04-24 17:35:00,55.9,28.8,30.17,West,279,4.0,19.0,35,0.00,,,0.03,meteohub,2013-04-24 22:35:00,
2013-04-24 17:40:00,55.9,29.3,30.17,SW,216,3.0,13.0,36,0.00,,,0.03,meteohub,2013-04-24 22:40:00,
2013-04-24 17:45:00,56.5,29.8,30.17,WSW,240,7.0,13.0,36,0.00,,,0.03,meteohub,2013-04-24 22:45:00,
2013-04-24 17:50:00,56.5,29.8,30.17,WNW,282,4.0,13.0,36,0.00,,,0.03,meteohub,2013-04-24 22:50:00,
2013-04-24 17:55:00,56.7,30.7,30.17,WSW,237,8.0,13.0,37,0.00,,,0.03,meteohub,2013-04-24 22:55:00,
2013-04-24 18:00:00,56.7,30.7,30.17,SW,223,8.0,13.0,37,0.00,,,0.03,meteohub,2013-04-24 23:00:00,
2013-04-24 18:05:00,56.8,30.9,30.17,SW,234,7.0,13.0,37,0.00,,,0.03,meteohub,2013-04-24 23:05:00,
2013-04-24 18:10:00,57.0,30.9,30.17,SW,217,5.0,13.0,37,0.00,,,0.03,meteohub,2013-04-24 23:10:00,
2013-04-24 18:15:00,57.0,30.9,30.17,SW,216,3.0,13.0,37,0.00,,,0.03,meteohub,2013-04-24 23:15:00,
2013-04-24 18:20:00,56.8,30.2,30.16,SW,226,10.0,13.0,36,0.00,,,0.03,meteohub,2013-04-24 23:20:00,
2013-04-24 18:25:00,57.0,30.9,30.16,SW,219,9.0,11.0,37,0.00,,,0.03,meteohub,2013-04-24 23:25:00,
2013-04-24 18:30:00,56.8,30.2,30.17,WSW,250,4.0,11.0,36,0.00,,,0.03,meteohub,2013-04-24 23:30:00,
2013-04-24 18:35:00,57.0,30.9,30.17,WSW,238,6.0,11.0,37,0.00,,,0.03,meteohub,2013-04-24 23:35:00,
2013-04-24 18:40:00,57.2,31.1,30.17,West,260,4.0,11.0,37,0.00,,,0.03,meteohub,2013-04-24 23:40:00,
2013-04-24 18:45:00,57.2,30.6,30.17,NW,312,3.0,11.0,36,0.00,,,0.03,meteohub,2013-04-24 23:45:00,
2013-04-24 18:50:00,57.0,30.9,30.17,SSW,201,3.0,11.0,37,0.00,,,0.03,meteohub,2013-04-24 23:50:00,
2013-04-24 18:55:00,57.0,30.9,30.16,WSW,246,3.0,12.0,37,0.00,,,0.03,meteohub,2013-04-24 23:55:00,
2013-04-24 19:00:00,56.8,30.9,30.16,West,280,4.0,12.0,37,0.00,,,0.03,meteohub,2013-04-25 00:00:00,
2013-04-24 19:05:00,56.8,30.9,30.17,West,269,6.0,12.0,37,0.00,,,0.03,meteohub,2013-04-25 00:05:00,
2013-04-24 19:10:00,56.8,30.9,30.16,West,277,5.0,12.0,37,0.00,,,0.00,meteohub,2013-04-25 00:10:00,
2013-04-24 19:15:00,56.7,30.7,30.16,SW,215,2.0,12.0,37,0.00,,,0.00,meteohub,2013-04-25 00:15:00,
2013-04-24 19:20:00,56.5,30.6,30.16,SSW,199,2.0,12.0,37,0.00,,,0.00,meteohub,2013-04-25 00:20:00,
2013-04-24 19:25:00,56.3,31.1,30.16,SSW,196,2.0,15.0,38,0.00,,,0.00,meteohub,2013-04-25 00:25:00,
2013-04-24 19:30:00,56.1,30.9,30.16,SW,230,3.0,15.0,38,0.00,,,0.00,meteohub,2013-04-25 00:30:00,
2013-04-24 19:35:00,55.9,31.3,30.16,WSW,242,4.0,15.0,39,0.00,,,0.00,meteohub,2013-04-25 00:35:00,
2013-04-24 19:40:00,55.9,32.0,30.16,SW,229,5.0,15.0,40,0.00,,,0.00,meteohub,2013-04-25 00:40:00,
2013-04-24 19:45:00,55.8,32.4,30.16,SW,220,4.0,11.0,41,0.00,,,0.00,meteohub,2013-04-25 00:45:00,
2013-04-24 19:50:00,55.6,33.4,30.16,SW,215,4.0,11.0,43,0.00,,,0.00,meteohub,2013-04-25 00:50:00,
2013-04-24 19:55:00,55.4,33.8,30.17,SSW,203,4.0,11.0,44,0.00,,,0.00,meteohub,2013-04-25 00:55:00,
2013-04-24 20:00:00,55.0,34.2,30.17,SSW,204,3.0,6.0,45,0.00,,,0.00,meteohub,2013-04-25 01:00:00,
2013-04-24 20:05:00,55.0,34.2,30.17,SSW,209,4.0,6.0,45,0.00,,,0.00,meteohub,2013-04-25 01:05:00,
2013-04-24 20:10:00,54.9,34.5,30.17,SW,221,6.0,6.0,46,0.00,,,0.00,meteohub,2013-04-25 01:10:00,
2013-04-24 20:15:00,54.7,34.3,30.17,SW,219,2.0,6.0,46,0.00,,,0.00,meteohub,2013-04-25 01:15:00,
2013-04-24 20:20:00,54.3,34.0,30.17,SSW,194,1.0,6.0,46,0.00,,,0.00,meteohub,2013-04-25 01:20:00,
2013-04-24 20:25:00,54.1,33.8,30.17,SSE,161,2.0,6.0,46,0.00,,,0.00,meteohub,2013-04-25 01:25:00,
2013-04-24 20:30:00,54.0,33.6,30.17,SSW,213,1.0,11.0,46,0.00,,,0.00,meteohub,2013-04-25 01:30:00,
2013-04-24 20:35:00,53.8,34.0,30.17,SSE,168,3.0,11.0,47,0.00,,,0.00,meteohub,2013-04-25 01:35:00,
2013-04-24 20:40:00,53.6,34.3,30.17,South,169,2.0,11.0,48,0.00,,,0.00,meteohub,2013-04-25 01:40:00,
2013-04-24 20:45:00,53.2,34.0,30.17,SSE,166,2.0,11.0,48,0.00,,,0.00,meteohub,2013-04-25 01:45:00,
2013-04-24 20:50:00,53.1,34.3,30.17,South,173,2.0,6.0,49,0.00,,,0.00,meteohub,2013-04-25 01:50:00,
2013-04-24 20:55:00,52.9,34.7,30.17,South,170,4.0,6.0,50,0.00,,,0.00,meteohub,2013-04-25 01:55:00,
2013-04-24 21:00:00,52.5,34.3,30.17,SSE,167,1.0,6.0,50,0.00,,,0.00,meteohub,2013-04-25 02:00:00,
2013-04-24 21:05:00,52.2,34.5,30.17,SSW,195,2.0,6.0,51,0.00,,,0.00,meteohub,2013-04-25 02:05:00,
2013-04-24 21:10:00,52.2,34.5,30.17,South,169,2.0,4.0,51,0.00,,,0.00,meteohub,2013-04-25 02:10:00,
2013-04-24 21:15:00,52.0,34.3,30.17,South,175,2.0,4.0,51,0.00,,,0.00,meteohub,2013-04-25 02:15:00,
2013-04-24 21:20:00,52.0,34.3,30.18,South,178,3.0,4.0,51,0.00,,,0.00,meteohub,2013-04-25 02:20:00,
2013-04-24 21:25:00,51.6,34.2,30.18,South,172,5.0,5.0,51,0.00,,,0.00,meteohub,2013-04-25 02:25:00,
2013-04-24 21:30:00,51.4,34.3,30.18,SSW,196,3.0,4.0,52,0.00,,,0.00,meteohub,2013-04-25 02:30:00,
2013-04-24 21:35:00,51.4,34.3,30.18,SSE,162,5.0,7.0,52,0.00,,,0.00,meteohub,2013-04-25 02:35:00,
2013-04-24 21:40:00,51.3,34.2,30.18,SE,137,2.0,7.0,52,0.00,,,0.00,meteohub,2013-04-25 02:40:00,
2013-04-24 21:45:00,51.3,34.2,30.18,SSW,206,3.0,7.0,52,0.00,,,0.00,meteohub,2013-04-25 02:45:00,
2013-04-24 21:50:00,51.1,34.0,30.18,SSW,199,5.0,7.0,52,0.00,,,0.00,meteohub,2013-04-25 02:50:00,
2013-04-24 21:55:00,50.9,34.3,30.19,SSE,161,3.0,7.0,53,0.00,,,0.00,meteohub,2013-04-25 02:55:00,
2013-04-24 22:00:00,50.7,34.2,30.19,South,181,4.0,7.0,53,0.00,,,0.00,meteohub,2013-04-25 03:00:00,
2013-04-24 22:05:00,50.5,34.0,30.19,South,185,2.0,7.0,53,0.00,,,0.00,meteohub,2013-04-25 03:05:00,
2013-04-24 22:10:00,50.4,33.8,30.20,SSW,196,5.0,7.0,53,0.00,,,0.00,meteohub,2013-04-25 03:10:00,
2013-04-24 22:15:00,50.4,34.3,30.20,SSW,202,2.0,10.0,54,0.00,,,0.00,meteohub,2013-04-25 03:15:00,
2013-04-24 22:20:00,50.4,34.3,30.20,SSW,204,3.0,10.0,54,0.00,,,0.00,meteohub,2013-04-25 03:20:00,
2013-04-24 22:25:00,50.2,34.2,30.20,South,172,4.0,10.0,54,0.00,,,0.00,meteohub,2013-04-25 03:25:00,
2013-04-24 22:30:00,50.2,34.2,30.21,South,190,2.0,10.0,54,0.00,,,0.00,meteohub,2013-04-25 03:30:00,
2013-04-24 22:35:00,50.2,34.2,30.20,South,185,2.0,10.0,54,0.00,,,0.00,meteohub,2013-04-25 03:35:00,
2013-04-24 22:40:00,50.2,34.2,30.20,SW,217,6.0,7.0,54,0.00,,,0.00,meteohub,2013-04-25 03:40:00,
2013-04-24 22:45:00,50.0,34.5,30.20,SW,214,1.0,7.0,55,0.00,,,0.00,meteohub,2013-04-25 03:45:00,
2013-04-24 22:50:00,49.8,34.3,30.20,SSW,198,1.0,7.0,55,0.00,,,0.00,meteohub,2013-04-25 03:50:00,
2013-04-24 22:55:00,49.6,34.2,30.21,SSW,207,3.0,7.0,55,0.00,,,0.00,meteohub,2013-04-25 03:55:00,
2013-04-24 23:00:00,49.5,34.3,30.21,SSW,192,2.0,10.0,56,0.00,,,0.00,meteohub,2013-04-25 04:00:00,
2013-04-24 23:01:00,49.5,34.3,30.21,SE,126,2.0,10.0,56,0.00,,,0.00,meteohub,2013-04-25 04:01:00,
2013-04-24 23:02:00,49.5,34.3,30.21,South,181,1.0,10.0,56,0.00,,,0.00,meteohub,2013-04-25 04:02:00,
2013-04-24 23:07:00,49.3,34.2,30.21,SSW,198,2.0,10.0,56,0.00,,,0.00,meteohub,2013-04-25 04:07:00,
2013-04-24 23:12:00,49.3,34.2,30.21,South,188,1.0,10.0,56,0.00,,,0.00,meteohub,2013-04-25 04:12:00,
2013-04-24 23:17:00,48.9,34.3,30.21,SSW,209,0.0,5.0,57,0.00,,,0.00,meteohub,2013-04-25 04:17:00,
2013-04-24 23:22:00,48.7,34.2,30.20,South,178,3.0,5.0,57,0.00,,,0.00,meteohub,2013-04-25 04:22:00,
2013-04-24 23:27:00,48.7,34.2,30.20,SSW,192,2.0,5.0,57,0.00,,,0.00,meteohub,2013-04-25 04:27:00,
2013-04-24 23:32:00,48.7,34.2,30.21,SW,231,4.0,5.0,57,0.00,,,0.00,meteohub,2013-04-25 04:32:00,
2013-04-24 23:37:00,48.7,34.2,30.21,SW,236,5.0,11.0,57,0.00,,,0.00,meteohub,2013-04-25 04:37:00,
2013-04-24 23:42:00,48.9,34.3,30.21,SSW,197,6.0,11.0,57,0.00,,,0.00,meteohub,2013-04-25 04:42:00,
2013-04-24 23:47:00,48.9,34.3,30.22,SSW,198,3.0,11.0,57,0.00,,,0.00,meteohub,2013-04-25 04:47:00,
2013-04-24 23:52:00,48.9,34.3,30.22,SW,234,10.0,11.0,57,0.00,,,0.00,meteohub,2013-04-25 04:52:00,
2013-04-24 23:57:00,49.1,34.5,30.22,SSW,212,6.0,11.0,57,0.00,,,0.00,meteohub,2013-04-25 04:57:00,